Embarcacion, Argentina
Current Conditions -  °F | °C
As of 4:00 PM on Tuesday 21 Oct 2014 (Local Time) from SASJ Reporting Station
Broken Clouds Broken Clouds  
Wind Chill: 28°   Ceiling: 20000
Heat Index: 28°   Visibility: 6mi
Dew Point: 15°   Wind: 7mph
Humidity: 45%   Direction: 90°E
Pressure: 30.06"   Gusts: NA
Location:  23.22°S, 64.1°W
Report Text: SASJ 211900Z 09006KT 9999 FEW035 BKN20028/15 Q1018
Loading
Personal Weather Stations






























Interactive Weather Map
Tropical Storm Tracking
New forecast layout! Learn more

10-Day Weather Forecast

Advertisements
Track Severe Weather on mobile